sensor_id;sensor_type;location;lat;lon;timestamp;P1;durP1;ratioP1;P2;durP2;ratioP2
57105;SDS011;62662;56.788;23.942;2022-11-11T00:01:02;15.55;;;5.45;;
57105;SDS011;62662;56.788;23.942;2022-11-11T00:03:33;15.50;;;4.97;;
57105;SDS011;62662;56.788;23.942;2022-11-11T00:06:01;11.50;;;5.22;;
57105;SDS011;62662;56.788;23.942;2022-11-11T00:08:38;12.43;;;5.35;;
57105;SDS011;62662;56.788;23.942;2022-11-11T00:11:06;9.52;;;4.80;;
57105;SDS011;62662;56.788;23.942;2022-11-11T00:13:35;14.57;;;4.70;;
57105;SDS011;62662;56.788;23.942;2022-11-11T00:16:07;11.80;;;4.47;;
57105;SDS011;62662;56.788;23.942;2022-11-11T00:18:45;11.93;;;4.70;;
57105;SDS011;62662;56.788;23.942;2022-11-11T00:21:31;10.57;;;4.80;;
57105;SDS011;62662;56.788;23.942;2022-11-11T00:27:09;16.23;;;5.13;;
57105;SDS011;62662;56.788;23.942;2022-11-11T00:29:37;14.38;;;4.57;;
57105;SDS011;62662;56.788;23.942;2022-11-11T00:32:05;17.45;;;5.78;;
57105;SDS011;62662;56.788;23.942;2022-11-11T00:34:49;19.48;;;5.38;;
57105;SDS011;62662;56.788;23.942;2022-11-11T00:37:35;20.65;;;6.43;;
57105;SDS011;62662;56.788;23.942;2022-11-11T00:40:02;17.27;;;6.03;;
57105;SDS011;62662;56.788;23.942;2022-11-11T00:42:29;16.27;;;5.90;;
57105;SDS011;62662;56.788;23.942;2022-11-11T00:44:56;17.40;;;5.15;;
57105;SDS011;62662;56.788;23.942;2022-11-11T00:47:23;11.80;;;5.47;;
57105;SDS011;62662;56.788;23.942;2022-11-11T00:50:19;16.77;;;5.47;;
57105;SDS011;62662;56.788;23.942;2022-11-11T00:53:10;12.43;;;5.57;;
57105;SDS011;62662;56.788;23.942;2022-11-11T00:55:50;17.50;;;5.55;;
57105;SDS011;62662;56.788;23.942;2022-11-11T00:58:17;17.92;;;5.80;;
57105;SDS011;62662;56.788;23.942;2022-11-11T01:00:44;17.55;;;5.68;;
57105;SDS011;62662;56.788;23.942;2022-11-11T01:03:11;21.23;;;6.30;;
57105;SDS011;62662;56.788;23.942;2022-11-11T01:05:38;24.73;;;5.65;;
57105;SDS011;62662;56.788;23.942;2022-11-11T01:08:05;17.08;;;5.60;;
57105;SDS011;62662;56.788;23.942;2022-11-11T01:10:32;21.33;;;5.60;;
57105;SDS011;62662;56.788;23.942;2022-11-11T01:13:06;18.40;;;5.50;;
57105;SDS011;62662;56.788;23.942;2022-11-11T01:15:45;16.23;;;5.63;;
57105;SDS011;62662;56.788;23.942;2022-11-11T01:18:14;22.33;;;6.35;;
57105;SDS011;62662;56.788;23.942;2022-11-11T01:20:43;25.27;;;6.28;;
57105;SDS011;62662;56.788;23.942;2022-11-11T01:23:10;18.35;;;5.65;;
57105;SDS011;62662;56.788;23.942;2022-11-11T01:25:39;13.98;;;5.57;;
57105;SDS011;62662;56.788;23.942;2022-11-11T01:28:07;20.98;;;5.53;;
57105;SDS011;62662;56.788;23.942;2022-11-11T01:30:35;26.13;;;7.03;;
57105;SDS011;62662;56.788;23.942;2022-11-11T01:33:02;19.75;;;5.60;;
57105;SDS011;62662;56.788;23.942;2022-11-11T01:35:29;20.27;;;5.80;;
57105;SDS011;62662;56.788;23.942;2022-11-11T01:37:57;15.82;;;5.35;;
57105;SDS011;62662;56.788;23.942;2022-11-11T01:40:25;21.45;;;5.68;;
57105;SDS011;62662;56.788;23.942;2022-11-11T01:42:53;23.45;;;7.00;;
57105;SDS011;62662;56.788;23.942;2022-11-11T01:45:48;18.60;;;6.20;;
57105;SDS011;62662;56.788;23.942;2022-11-11T01:48:16;21.88;;;6.60;;
57105;SDS011;62662;56.788;23.942;2022-11-11T01:51:11;25.88;;;6.50;;
57105;SDS011;62662;56.788;23.942;2022-11-11T01:54:04;19.67;;;6.50;;
57105;SDS011;62662;56.788;23.942;2022-11-11T01:56:36;15.82;;;6.75;;
57105;SDS011;62662;56.788;23.942;2022-11-11T01:59:08;19.20;;;6.82;;
57105;SDS011;62662;56.788;23.942;2022-11-11T02:01:38;23.90;;;6.70;;
57105;SDS011;62662;56.788;23.942;2022-11-11T02:04:05;29.23;;;7.20;;
57105;SDS011;62662;56.788;23.942;2022-11-11T02:06:56;24.27;;;7.75;;
57105;SDS011;62662;56.788;23.942;2022-11-11T02:09:27;25.17;;;7.43;;
57105;SDS011;62662;56.788;23.942;2022-11-11T02:11:55;24.63;;;6.68;;
57105;SDS011;62662;56.788;23.942;2022-11-11T02:14:44;23.08;;;7.20;;
57105;SDS011;62662;56.788;23.942;2022-11-11T02:17:15;25.65;;;7.13;;
57105;SDS011;62662;56.788;23.942;2022-11-11T02:19:50;18.90;;;6.47;;
57105;SDS011;62662;56.788;23.942;2022-11-11T02:25:00;23.95;;;6.82;;
57105;SDS011;62662;56.788;23.942;2022-11-11T02:27:30;20.55;;;6.70;;
57105;SDS011;62662;56.788;23.942;2022-11-11T02:29:58;23.48;;;6.78;;
57105;SDS011;62662;56.788;23.942;2022-11-11T02:32:27;22.42;;;7.32;;
57105;SDS011;62662;56.788;23.942;2022-11-11T02:34:54;26.85;;;7.03;;
57105;SDS011;62662;56.788;23.942;2022-11-11T02:37:22;22.95;;;7.20;;
57105;SDS011;62662;56.788;23.942;2022-11-11T02:39:51;23.65;;;7.70;;
57105;SDS011;62662;56.788;23.942;2022-11-11T02:42:31;21.20;;;6.72;;
57105;SDS011;62662;56.788;23.942;2022-11-11T02:45:01;23.90;;;6.88;;
57105;SDS011;62662;56.788;23.942;2022-11-11T02:47:28;25.98;;;7.03;;
57105;SDS011;62662;56.788;23.942;2022-11-11T02:49:55;36.30;;;7.88;;
57105;SDS011;62662;56.788;23.942;2022-11-11T02:52:22;26.58;;;7.22;;
57105;SDS011;62662;56.788;23.942;2022-11-11T02:54:49;24.27;;;6.70;;
57105;SDS011;62662;56.788;23.942;2022-11-11T02:57:16;30.08;;;7.40;;
57105;SDS011;62662;56.788;23.942;2022-11-11T02:59:43;23.70;;;7.32;;
57105;SDS011;62662;56.788;23.942;2022-11-11T03:02:10;22.83;;;6.90;;
57105;SDS011;62662;56.788;23.942;2022-11-11T03:04:37;24.88;;;6.43;;
57105;SDS011;62662;56.788;23.942;2022-11-11T03:07:04;21.98;;;5.90;;
57105;SDS011;62662;56.788;23.942;2022-11-11T03:09:32;24.52;;;6.47;;
57105;SDS011;62662;56.788;23.942;2022-11-11T03:11:59;25.48;;;6.45;;
57105;SDS011;62662;56.788;23.942;2022-11-11T03:14:26;22.35;;;5.93;;
57105;SDS011;62662;56.788;23.942;2022-11-11T03:16:54;28.42;;;5.57;;
57105;SDS011;62662;56.788;23.942;2022-11-11T03:19:39;28.75;;;6.38;;
57105;SDS011;62662;56.788;23.942;2022-11-11T03:22:06;19.98;;;5.50;;
57105;SDS011;62662;56.788;23.942;2022-11-11T03:24:53;21.48;;;5.40;;
57105;SDS011;62662;56.788;23.942;2022-11-11T03:27:39;24.55;;;6.15;;
57105;SDS011;62662;56.788;23.942;2022-11-11T03:30:07;18.13;;;5.60;;
57105;SDS011;62662;56.788;23.942;2022-11-11T03:32:34;20.45;;;5.18;;
57105;SDS011;62662;56.788;23.942;2022-11-11T03:35:01;23.52;;;5.43;;
57105;SDS011;62662;56.788;23.942;2022-11-11T03:37:28;20.10;;;4.80;;
57105;SDS011;62662;56.788;23.942;2022-11-11T03:40:13;23.08;;;5.10;;
57105;SDS011;62662;56.788;23.942;2022-11-11T03:42:40;19.27;;;4.93;;
57105;SDS011;62662;56.788;23.942;2022-11-11T03:45:09;22.55;;;5.68;;
57105;SDS011;62662;56.788;23.942;2022-11-11T03:47:36;21.48;;;5.35;;
57105;SDS011;62662;56.788;23.942;2022-11-11T03:50:03;16.60;;;4.80;;
57105;SDS011;62662;56.788;23.942;2022-11-11T03:52:30;22.27;;;5.05;;
57105;SDS011;62662;56.788;23.942;2022-11-11T03:54:57;23.73;;;5.25;;
57105;SDS011;62662;56.788;23.942;2022-11-11T03:57:23;23.05;;;5.38;;
57105;SDS011;62662;56.788;23.942;2022-11-11T03:59:56;18.38;;;5.03;;
57105;SDS011;62662;56.788;23.942;2022-11-11T04:02:23;15.60;;;5.03;;
57105;SDS011;62662;56.788;23.942;2022-11-11T04:05:09;16.23;;;5.10;;
57105;SDS011;62662;56.788;23.942;2022-11-11T04:07:54;27.90;;;5.25;;
57105;SDS011;62662;56.788;23.942;2022-11-11T04:10:40;20.67;;;5.60;;
57105;SDS011;62662;56.788;23.942;2022-11-11T04:13:06;18.85;;;5.07;;
57105;SDS011;62662;56.788;23.942;2022-11-11T04:15:52;14.85;;;4.70;;
57105;SDS011;62662;56.788;23.942;2022-11-11T04:18:32;17.02;;;5.13;;
57105;SDS011;62662;56.788;23.942;2022-11-11T04:21:22;31.42;;;5.38;;
57105;SDS011;62662;56.788;23.942;2022-11-11T04:26:55;20.20;;;4.95;;
57105;SDS011;62662;56.788;23.942;2022-11-11T04:29:23;23.48;;;6.07;;
57105;SDS011;62662;56.788;23.942;2022-11-11T04:34:39;24.80;;;5.68;;
57105;SDS011;62662;56.788;23.942;2022-11-11T04:37:07;18.80;;;5.40;;
57105;SDS011;62662;56.788;23.942;2022-11-11T04:39:35;24.35;;;5.53;;
57105;SDS011;62662;56.788;23.942;2022-11-11T04:42:20;23.45;;;5.35;;
57105;SDS011;62662;56.788;23.942;2022-11-11T04:44:47;22.05;;;6.00;;
57105;SDS011;62662;56.788;23.942;2022-11-11T04:47:33;18.05;;;5.22;;
57105;SDS011;62662;56.788;23.942;2022-11-11T04:50:00;22.70;;;5.43;;
57105;SDS011;62662;56.788;23.942;2022-11-11T04:52:32;19.33;;;5.50;;
57105;SDS011;62662;56.788;23.942;2022-11-11T04:54:59;17.65;;;6.43;;
57105;SDS011;62662;56.788;23.942;2022-11-11T04:57:47;22.15;;;5.93;;
57105;SDS011;62662;56.788;23.942;2022-11-11T05:00:16;14.48;;;5.25;;
57105;SDS011;62662;56.788;23.942;2022-11-11T05:02:44;22.08;;;5.63;;
57105;SDS011;62662;56.788;23.942;2022-11-11T05:05:30;22.40;;;5.95;;
57105;SDS011;62662;56.788;23.942;2022-11-11T05:08:20;14.23;;;5.50;;
57105;SDS011;62662;56.788;23.942;2022-11-11T05:11:05;19.65;;;6.10;;
57105;SDS011;62662;56.788;23.942;2022-11-11T05:13:32;19.98;;;6.32;;
57105;SDS011;62662;56.788;23.942;2022-11-11T05:16:22;25.13;;;6.97;;
57105;SDS011;62662;56.788;23.942;2022-11-11T05:19:11;17.08;;;6.28;;
57105;SDS011;62662;56.788;23.942;2022-11-11T05:22:22;20.38;;;6.13;;
57105;SDS011;62662;56.788;23.942;2022-11-11T05:24:51;24.88;;;6.72;;
57105;SDS011;62662;56.788;23.942;2022-11-11T05:27:36;19.38;;;7.10;;
57105;SDS011;62662;56.788;23.942;2022-11-11T05:30:08;13.98;;;5.88;;
57105;SDS011;62662;56.788;23.942;2022-11-11T05:32:40;17.60;;;6.63;;
57105;SDS011;62662;56.788;23.942;2022-11-11T05:35:08;19.58;;;6.72;;
57105;SDS011;62662;56.788;23.942;2022-11-11T05:37:40;21.35;;;6.05;;
57105;SDS011;62662;56.788;23.942;2022-11-11T05:40:08;18.55;;;6.25;;
57105;SDS011;62662;56.788;23.942;2022-11-11T05:42:41;21.45;;;6.85;;
57105;SDS011;62662;56.788;23.942;2022-11-11T05:45:16;19.00;;;6.32;;
57105;SDS011;62662;56.788;23.942;2022-11-11T05:47:43;19.88;;;6.63;;
57105;SDS011;62662;56.788;23.942;2022-11-11T05:50:10;18.10;;;6.85;;
57105;SDS011;62662;56.788;23.942;2022-11-11T05:52:38;21.20;;;6.57;;
57105;SDS011;62662;56.788;23.942;2022-11-11T05:55:06;23.05;;;7.15;;
57105;SDS011;62662;56.788;23.942;2022-11-11T05:57:37;24.83;;;5.93;;
57105;SDS011;62662;56.788;23.942;2022-11-11T06:00:17;17.73;;;7.30;;
57105;SDS011;62662;56.788;23.942;2022-11-11T06:03:04;22.27;;;7.20;;
57105;SDS011;62662;56.788;23.942;2022-11-11T06:05:49;18.92;;;6.70;;
57105;SDS011;62662;56.788;23.942;2022-11-11T06:09:12;15.77;;;6.15;;
57105;SDS011;62662;56.788;23.942;2022-11-11T06:11:54;12.85;;;6.18;;
57105;SDS011;62662;56.788;23.942;2022-11-11T06:14:30;22.38;;;7.63;;
57105;SDS011;62662;56.788;23.942;2022-11-11T06:16:59;21.40;;;6.95;;
57105;SDS011;62662;56.788;23.942;2022-11-11T06:19:37;18.15;;;7.05;;
57105;SDS011;62662;56.788;23.942;2022-11-11T06:22:15;19.35;;;7.45;;
57105;SDS011;62662;56.788;23.942;2022-11-11T06:26:22;17.08;;;6.20;;
57105;SDS011;62662;56.788;23.942;2022-11-11T06:28:42;13.77;;;6.95;;
57105;SDS011;62662;56.788;23.942;2022-11-11T06:31:30;17.15;;;7.13;;
57105;SDS011;62662;56.788;23.942;2022-11-11T06:34:02;17.23;;;8.25;;
57105;SDS011;62662;56.788;23.942;2022-11-11T06:36:36;14.05;;;7.20;;
57105;SDS011;62662;56.788;23.942;2022-11-11T06:39:11;12.80;;;6.82;;
57105;SDS011;62662;56.788;23.942;2022-11-11T06:42:12;15.75;;;7.70;;
57105;SDS011;62662;56.788;23.942;2022-11-11T06:48:51;14.40;;;7.30;;
57105;SDS011;62662;56.788;23.942;2022-11-11T06:54:30;10.88;;;6.47;;
57105;SDS011;62662;56.788;23.942;2022-11-11T06:57:01;13.63;;;6.50;;
57105;SDS011;62662;56.788;23.942;2022-11-11T06:59:34;12.73;;;5.95;;
57105;SDS011;62662;56.788;23.942;2022-11-11T07:02:17;10.75;;;5.50;;
57105;SDS011;62662;56.788;23.942;2022-11-11T07:05:00;14.85;;;6.53;;
57105;SDS011;62662;56.788;23.942;2022-11-11T07:08:07;10.40;;;5.95;;
57105;SDS011;62662;56.788;23.942;2022-11-11T07:13:44;11.85;;;6.10;;
57105;SDS011;62662;56.788;23.942;2022-11-11T07:16:29;9.73;;;5.43;;
57105;SDS011;62662;56.788;23.942;2022-11-11T07:19:02;10.07;;;5.75;;
57105;SDS011;62662;56.788;23.942;2022-11-11T07:21:33;10.93;;;5.68;;
57105;SDS011;62662;56.788;23.942;2022-11-11T07:33:26;7.28;;;4.80;;
57105;SDS011;62662;56.788;23.942;2022-11-11T07:36:43;7.40;;;4.70;;
57105;SDS011;62662;56.788;23.942;2022-11-11T07:39:43;6.32;;;4.70;;
57105;SDS011;62662;56.788;23.942;2022-11-11T07:42:53;6.60;;;4.68;;
57105;SDS011;62662;56.788;23.942;2022-11-11T07:45:27;10.32;;;4.13;;
57105;SDS011;62662;56.788;23.942;2022-11-11T07:48:24;9.80;;;4.88;;
57105;SDS011;62662;56.788;23.942;2022-11-11T07:52:08;7.77;;;5.50;;
57105;SDS011;62662;56.788;23.942;2022-11-11T07:54:36;6.05;;;4.45;;
57105;SDS011;62662;56.788;23.942;2022-11-11T07:57:03;6.47;;;4.80;;
57105;SDS011;62662;56.788;23.942;2022-11-11T07:59:36;6.55;;;3.95;;
57105;SDS011;62662;56.788;23.942;2022-11-11T08:02:13;6.13;;;4.00;;
57105;SDS011;62662;56.788;23.942;2022-11-11T08:04:46;5.45;;;3.85;;
57105;SDS011;62662;56.788;23.942;2022-11-11T08:07:35;4.97;;;4.03;;
57105;SDS011;62662;56.788;23.942;2022-11-11T08:11:54;6.63;;;4.50;;
57105;SDS011;62662;56.788;23.942;2022-11-11T08:14:32;5.15;;;3.80;;
57105;SDS011;62662;56.788;23.942;2022-11-11T08:17:02;7.80;;;4.13;;
57105;SDS011;62662;56.788;23.942;2022-11-11T08:19:29;6.18;;;4.10;;
57105;SDS011;62662;56.788;23.942;2022-11-11T08:21:57;4.95;;;3.45;;
57105;SDS011;62662;56.788;23.942;2022-11-11T08:24:30;5.13;;;4.22;;
57105;SDS011;62662;56.788;23.942;2022-11-11T08:27:28;5.03;;;4.53;;
57105;SDS011;62662;56.788;23.942;2022-11-11T08:31:17;6.20;;;4.70;;
57105;SDS011;62662;56.788;23.942;2022-11-11T08:33:51;7.00;;;4.18;;
57105;SDS011;62662;56.788;23.942;2022-11-11T08:39:59;7.03;;;4.20;;
57105;SDS011;62662;56.788;23.942;2022-11-11T08:42:54;4.70;;;3.78;;
57105;SDS011;62662;56.788;23.942;2022-11-11T08:45:27;9.63;;;4.57;;
57105;SDS011;62662;56.788;23.942;2022-11-11T08:48:11;4.90;;;4.35;;
57105;SDS011;62662;56.788;23.942;2022-11-11T08:51:22;4.72;;;4.25;;
57105;SDS011;62662;56.788;23.942;2022-11-11T08:54:11;6.28;;;3.97;;
57105;SDS011;62662;56.788;23.942;2022-11-11T09:00:26;6.45;;;5.32;;
57105;SDS011;62662;56.788;23.942;2022-11-11T09:03:32;6.68;;;4.30;;
57105;SDS011;62662;56.788;23.942;2022-11-11T09:06:37;6.35;;;4.68;;
57105;SDS011;62662;56.788;23.942;2022-11-11T09:09:59;4.82;;;4.05;;
57105;SDS011;62662;56.788;23.942;2022-11-11T09:13:07;4.63;;;3.90;;
57105;SDS011;62662;56.788;23.942;2022-11-11T09:16:43;7.47;;;4.70;;
57105;SDS011;62662;56.788;23.942;2022-11-11T09:19:46;4.78;;;4.35;;
57105;SDS011;62662;56.788;23.942;2022-11-11T09:23:48;5.22;;;4.25;;
57105;SDS011;62662;56.788;23.942;2022-11-11T09:30:51;7.90;;;5.35;;
57105;SDS011;62662;56.788;23.942;2022-11-11T09:33:38;4.82;;;4.30;;
57105;SDS011;62662;56.788;23.942;2022-11-11T09:36:26;5.18;;;4.68;;
57105;SDS011;62662;56.788;23.942;2022-11-11T09:39:02;6.25;;;5.03;;
57105;SDS011;62662;56.788;23.942;2022-11-11T09:50:56;6.33;;;5.00;;
57105;SDS011;62662;56.788;23.942;2022-11-11T09:54:00;8.77;;;4.75;;
57105;SDS011;62662;56.788;23.942;2022-11-11T09:56:47;5.53;;;4.78;;
57105;SDS011;62662;56.788;23.942;2022-11-11T10:06:12;5.63;;;4.05;;
57105;SDS011;62662;56.788;23.942;2022-11-11T10:09:27;5.30;;;4.80;;
57105;SDS011;62662;56.788;23.942;2022-11-11T10:12:34;7.47;;;5.15;;
57105;SDS011;62662;56.788;23.942;2022-11-11T10:15:26;7.35;;;5.00;;
57105;SDS011;62662;56.788;23.942;2022-11-11T10:18:48;5.45;;;4.85;;
57105;SDS011;62662;56.788;23.942;2022-11-11T10:21:30;6.22;;;4.50;;
57105;SDS011;62662;56.788;23.942;2022-11-11T10:25:17;6.60;;;5.88;;
57105;SDS011;62662;56.788;23.942;2022-11-11T10:28:07;5.70;;;5.00;;
57105;SDS011;62662;56.788;23.942;2022-11-11T10:30:51;5.88;;;4.40;;
57105;SDS011;62662;56.788;23.942;2022-11-11T10:33:42;4.80;;;4.40;;
57105;SDS011;62662;56.788;23.942;2022-11-11T10:36:39;6.45;;;5.07;;
57105;SDS011;62662;56.788;23.942;2022-11-11T10:39:19;5.35;;;4.72;;
57105;SDS011;62662;56.788;23.942;2022-11-11T10:41:57;9.48;;;7.80;;
57105;SDS011;62662;56.788;23.942;2022-11-11T10:44:28;6.20;;;4.80;;
57105;SDS011;62662;56.788;23.942;2022-11-11T10:47:44;5.57;;;4.32;;
57105;SDS011;62662;56.788;23.942;2022-11-11T10:50:53;9.63;;;5.00;;
57105;SDS011;62662;56.788;23.942;2022-11-11T10:54:20;8.15;;;6.88;;
57105;SDS011;62662;56.788;23.942;2022-11-11T11:01:15;11.32;;;6.95;;
57105;SDS011;62662;56.788;23.942;2022-11-11T11:04:00;10.05;;;7.32;;
57105;SDS011;62662;56.788;23.942;2022-11-11T11:06:41;12.55;;;8.00;;
57105;SDS011;62662;56.788;23.942;2022-11-11T11:09:20;10.80;;;7.55;;
57105;SDS011;62662;56.788;23.942;2022-11-11T11:12:04;13.05;;;8.20;;
57105;SDS011;62662;56.788;23.942;2022-11-11T11:14:52;12.45;;;8.10;;
57105;SDS011;62662;56.788;23.942;2022-11-11T11:17:34;13.02;;;7.25;;
57105;SDS011;62662;56.788;23.942;2022-11-11T11:20:16;16.25;;;8.43;;
57105;SDS011;62662;56.788;23.942;2022-11-11T11:22:50;13.35;;;8.15;;
57105;SDS011;62662;56.788;23.942;2022-11-11T11:25:24;15.05;;;8.77;;
57105;SDS011;62662;56.788;23.942;2022-11-11T11:28:07;17.33;;;10.00;;
57105;SDS011;62662;56.788;23.942;2022-11-11T11:30:40;18.98;;;9.70;;
57105;SDS011;62662;56.788;23.942;2022-11-11T11:34:14;17.90;;;10.00;;
57105;SDS011;62662;56.788;23.942;2022-11-11T11:36:34;14.88;;;9.60;;
57105;SDS011;62662;56.788;23.942;2022-11-11T11:39:06;19.25;;;11.77;;
57105;SDS011;62662;56.788;23.942;2022-11-11T11:41:38;21.30;;;11.85;;
57105;SDS011;62662;56.788;23.942;2022-11-11T11:55:43;25.00;;;12.25;;
57105;SDS011;62662;56.788;23.942;2022-11-11T11:58:28;20.50;;;12.48;;
57105;SDS011;62662;56.788;23.942;2022-11-11T12:21:15;24.27;;;11.88;;
57105;SDS011;62662;56.788;23.942;2022-11-11T12:31:57;27.40;;;12.38;;
57105;SDS011;62662;56.788;23.942;2022-11-11T12:57:40;27.15;;;11.75;;
57105;SDS011;62662;56.788;23.942;2022-11-11T13:00:27;21.58;;;11.55;;
57105;SDS011;62662;56.788;23.942;2022-11-11T13:16:16;20.88;;;9.65;;
57105;SDS011;62662;56.788;23.942;2022-11-11T13:21:17;15.93;;;8.60;;
57105;SDS011;62662;56.788;23.942;2022-11-11T13:23:48;21.77;;;8.45;;
57105;SDS011;62662;56.788;23.942;2022-11-11T13:26:23;17.98;;;7.75;;
57105;SDS011;62662;56.788;23.942;2022-11-11T13:29:08;20.88;;;8.07;;
57105;SDS011;62662;56.788;23.942;2022-11-11T13:31:59;23.48;;;8.00;;
57105;SDS011;62662;56.788;23.942;2022-11-11T13:34:29;23.15;;;7.38;;
57105;SDS011;62662;56.788;23.942;2022-11-11T13:37:00;18.48;;;7.43;;
57105;SDS011;62662;56.788;23.942;2022-11-11T13:39:31;25.13;;;7.28;;
57105;SDS011;62662;56.788;23.942;2022-11-11T13:42:03;19.50;;;6.68;;
57105;SDS011;62662;56.788;23.942;2022-11-11T13:44:36;18.80;;;7.07;;
57105;SDS011;62662;56.788;23.942;2022-11-11T13:47:18;16.98;;;7.18;;
57105;SDS011;62662;56.788;23.942;2022-11-11T13:49:53;16.05;;;6.35;;
57105;SDS011;62662;56.788;23.942;2022-11-11T13:52:30;16.20;;;6.07;;
57105;SDS011;62662;56.788;23.942;2022-11-11T13:55:08;17.75;;;6.85;;
57105;SDS011;62662;56.788;23.942;2022-11-11T13:57:51;19.77;;;6.57;;
57105;SDS011;62662;56.788;23.942;2022-11-11T14:02:46;22.17;;;6.50;;
57105;SDS011;62662;56.788;23.942;2022-11-11T14:05:15;24.02;;;6.43;;
57105;SDS011;62662;56.788;23.942;2022-11-11T14:12:45;21.85;;;6.50;;
57105;SDS011;62662;56.788;23.942;2022-11-11T14:15:39;16.27;;;6.32;;
57105;SDS011;62662;56.788;23.942;2022-11-11T14:18:10;17.30;;;5.80;;
57105;SDS011;62662;56.788;23.942;2022-11-11T14:21:01;16.48;;;6.03;;
57105;SDS011;62662;56.788;23.942;2022-11-11T14:23:37;12.85;;;5.82;;
57105;SDS011;62662;56.788;23.942;2022-11-11T14:39:41;20.75;;;6.07;;
57105;SDS011;62662;56.788;23.942;2022-11-11T14:45:03;15.20;;;5.47;;
57105;SDS011;62662;56.788;23.942;2022-11-11T14:47:50;17.50;;;5.57;;
57105;SDS011;62662;56.788;23.942;2022-11-11T14:53:01;16.50;;;5.75;;
57105;SDS011;62662;56.788;23.942;2022-11-11T14:55:38;17.75;;;6.10;;
57105;SDS011;62662;56.788;23.942;2022-11-11T14:58:10;16.60;;;5.93;;
57105;SDS011;62662;56.788;23.942;2022-11-11T15:00:47;18.70;;;6.40;;
57105;SDS011;62662;56.788;23.942;2022-11-11T15:06:23;17.83;;;5.90;;
57105;SDS011;62662;56.788;23.942;2022-11-11T15:15:09;19.10;;;5.45;;
57105;SDS011;62662;56.788;23.942;2022-11-11T15:26:17;18.23;;;5.07;;
57105;SDS011;62662;56.788;23.942;2022-11-11T15:37:55;15.88;;;4.70;;
57105;SDS011;62662;56.788;23.942;2022-11-11T15:40:46;18.33;;;5.00;;
57105;SDS011;62662;56.788;23.942;2022-11-11T15:43:24;19.50;;;4.60;;
57105;SDS011;62662;56.788;23.942;2022-11-11T15:45:55;19.63;;;4.03;;
57105;SDS011;62662;56.788;23.942;2022-11-11T15:48:41;14.52;;;4.60;;
57105;SDS011;62662;56.788;23.942;2022-11-11T15:51:17;16.52;;;4.45;;
57105;SDS011;62662;56.788;23.942;2022-11-11T15:54:13;14.77;;;4.45;;
57105;SDS011;62662;56.788;23.942;2022-11-11T15:56:46;18.35;;;4.38;;
57105;SDS011;62662;56.788;23.942;2022-11-11T15:59:23;17.33;;;4.57;;
57105;SDS011;62662;56.788;23.942;2022-11-11T16:01:55;12.23;;;4.07;;
57105;SDS011;62662;56.788;23.942;2022-11-11T16:04:24;15.35;;;4.38;;
57105;SDS011;62662;56.788;23.942;2022-11-11T16:07:22;17.60;;;4.38;;
57105;SDS011;62662;56.788;23.942;2022-11-11T16:09:52;13.93;;;3.90;;
57105;SDS011;62662;56.788;23.942;2022-11-11T16:12:29;11.63;;;4.18;;
57105;SDS011;62662;56.788;23.942;2022-11-11T16:15:02;19.08;;;4.28;;
57105;SDS011;62662;56.788;23.942;2022-11-11T16:17:37;22.02;;;4.90;;
57105;SDS011;62662;56.788;23.942;2022-11-11T16:20:12;13.35;;;4.15;;
57105;SDS011;62662;56.788;23.942;2022-11-11T16:22:41;16.20;;;4.07;;
57105;SDS011;62662;56.788;23.942;2022-11-11T16:25:20;14.18;;;4.47;;
57105;SDS011;62662;56.788;23.942;2022-11-11T16:27:48;8.63;;;3.10;;
57105;SDS011;62662;56.788;23.942;2022-11-11T16:30:31;22.85;;;4.50;;
57105;SDS011;62662;56.788;23.942;2022-11-11T16:33:00;10.65;;;3.65;;
57105;SDS011;62662;56.788;23.942;2022-11-11T16:35:31;17.35;;;3.90;;
57105;SDS011;62662;56.788;23.942;2022-11-11T16:38:02;21.33;;;4.43;;
57105;SDS011;62662;56.788;23.942;2022-11-11T16:46:03;13.50;;;4.30;;
57105;SDS011;62662;56.788;23.942;2022-11-11T16:48:37;15.75;;;4.10;;
57105;SDS011;62662;56.788;23.942;2022-11-11T16:51:12;14.48;;;4.28;;
57105;SDS011;62662;56.788;23.942;2022-11-11T16:53:41;12.07;;;3.85;;
57105;SDS011;62662;56.788;23.942;2022-11-11T16:56:19;13.68;;;3.83;;
57105;SDS011;62662;56.788;23.942;2022-11-11T16:58:55;14.95;;;3.72;;
57105;SDS011;62662;56.788;23.942;2022-11-11T17:01:41;10.43;;;3.83;;
57105;SDS011;62662;56.788;23.942;2022-11-11T17:04:10;13.45;;;3.83;;
57105;SDS011;62662;56.788;23.942;2022-11-11T17:09:28;12.98;;;3.78;;
57105;SDS011;62662;56.788;23.942;2022-11-11T17:11:56;12.60;;;3.95;;
57105;SDS011;62662;56.788;23.942;2022-11-11T17:14:24;17.35;;;4.38;;
57105;SDS011;62662;56.788;23.942;2022-11-11T17:16:52;16.58;;;4.63;;
57105;SDS011;62662;56.788;23.942;2022-11-11T17:19:22;16.25;;;4.30;;
57105;SDS011;62662;56.788;23.942;2022-11-11T17:21:54;13.63;;;4.03;;
57105;SDS011;62662;56.788;23.942;2022-11-11T17:24:21;8.40;;;4.13;;
57105;SDS011;62662;56.788;23.942;2022-11-11T17:26:48;14.02;;;3.88;;
57105;SDS011;62662;56.788;23.942;2022-11-11T17:29:15;12.35;;;4.03;;
57105;SDS011;62662;56.788;23.942;2022-11-11T17:31:42;14.02;;;4.13;;
57105;SDS011;62662;56.788;23.942;2022-11-11T17:34:09;16.88;;;3.95;;
57105;SDS011;62662;56.788;23.942;2022-11-11T17:36:37;10.80;;;3.40;;
57105;SDS011;62662;56.788;23.942;2022-11-11T17:39:05;15.25;;;4.55;;
57105;SDS011;62662;56.788;23.942;2022-11-11T17:41:31;12.80;;;3.65;;
57105;SDS011;62662;56.788;23.942;2022-11-11T17:43:59;13.65;;;4.18;;
57105;SDS011;62662;56.788;23.942;2022-11-11T17:46:26;9.35;;;3.67;;
57105;SDS011;62662;56.788;23.942;2022-11-11T17:48:53;15.35;;;3.80;;
57105;SDS011;62662;56.788;23.942;2022-11-11T17:51:21;11.15;;;3.75;;
57105;SDS011;62662;56.788;23.942;2022-11-11T17:53:50;12.93;;;3.45;;
57105;SDS011;62662;56.788;23.942;2022-11-11T17:56:18;19.50;;;4.43;;
57105;SDS011;62662;56.788;23.942;2022-11-11T17:58:45;15.00;;;3.92;;
57105;SDS011;62662;56.788;23.942;2022-11-11T18:01:13;19.58;;;4.53;;
57105;SDS011;62662;56.788;23.942;2022-11-11T18:03:41;12.10;;;4.07;;
57105;SDS011;62662;56.788;23.942;2022-11-11T18:06:09;12.88;;;3.45;;
57105;SDS011;62662;56.788;23.942;2022-11-11T18:08:36;16.50;;;4.20;;
57105;SDS011;62662;56.788;23.942;2022-11-11T18:11:05;12.98;;;3.65;;
57105;SDS011;62662;56.788;23.942;2022-11-11T18:13:36;15.18;;;4.18;;
57105;SDS011;62662;56.788;23.942;2022-11-11T18:16:03;9.68;;;3.60;;
57105;SDS011;62662;56.788;23.942;2022-11-11T18:18:32;15.05;;;4.25;;
57105;SDS011;62662;56.788;23.942;2022-11-11T18:21:03;12.07;;;4.00;;
57105;SDS011;62662;56.788;23.942;2022-11-11T18:23:32;11.38;;;3.88;;
57105;SDS011;62662;56.788;23.942;2022-11-11T18:26:00;14.90;;;3.88;;
57105;SDS011;62662;56.788;23.942;2022-11-11T18:28:29;20.40;;;5.47;;
57105;SDS011;62662;56.788;23.942;2022-11-11T18:31:07;18.73;;;4.18;;
57105;SDS011;62662;56.788;23.942;2022-11-11T18:33:36;16.95;;;4.43;;
57105;SDS011;62662;56.788;23.942;2022-11-11T18:36:05;18.45;;;4.57;;
57105;SDS011;62662;56.788;23.942;2022-11-11T18:38:35;16.10;;;3.78;;
57105;SDS011;62662;56.788;23.942;2022-11-11T18:41:06;18.15;;;4.22;;
57105;SDS011;62662;56.788;23.942;2022-11-11T18:43:39;16.60;;;4.25;;
57105;SDS011;62662;56.788;23.942;2022-11-11T18:46:11;13.70;;;4.32;;
57105;SDS011;62662;56.788;23.942;2022-11-11T18:48:40;13.77;;;4.43;;
57105;SDS011;62662;56.788;23.942;2022-11-11T18:51:08;16.20;;;4.03;;